createdAt,value
2022-12-22T00:00:00.869Z,45.00
2022-12-22T00:02:48.383Z,44.75
2022-12-22T00:05:39.365Z,44.03
2022-12-22T00:08:26.258Z,42.67
2022-12-22T00:11:13.316Z,41.92
2022-12-22T00:14:01.372Z,46.03
2022-12-22T00:16:52.133Z,46.00
2022-12-22T00:19:38.311Z,47.72
2022-12-22T00:22:38.810Z,44.13
2022-12-22T00:25:25.425Z,47.45
2022-12-22T00:28:11.140Z,46.80
2022-12-22T00:30:57.299Z,45.63
2022-12-22T00:33:43.256Z,47.28
2022-12-22T00:36:31.009Z,44.00
2022-12-22T00:39:17.055Z,44.53
2022-12-22T00:42:03.806Z,45.33
2022-12-22T00:44:50.074Z,44.38
2022-12-22T00:47:47.213Z,46.30
2022-12-22T00:50:34.148Z,42.65
2022-12-22T00:53:21.157Z,44.10
2022-12-22T00:56:07.338Z,43.53
2022-12-22T00:58:53.875Z,45.03
2022-12-22T01:01:39.644Z,42.30
2022-12-22T01:04:29.342Z,42.75
2022-12-22T01:07:16.148Z,43.90
2022-12-22T01:10:05.910Z,43.13
2022-12-22T01:12:52.983Z,44.17
2022-12-22T01:15:39.627Z,42.88
2022-12-22T01:18:25.847Z,42.22
2022-12-22T01:21:12.204Z,46.53
2022-12-22T01:23:58.338Z,43.60
2022-12-22T01:26:44.654Z,42.10
2022-12-22T01:29:30.267Z,45.63
2022-12-22T01:32:16.548Z,41.67
2022-12-22T01:35:02.661Z,42.80
2022-12-22T01:37:48.945Z,43.63
2022-12-22T01:40:40.103Z,43.67
2022-12-22T01:43:40.400Z,43.65
2022-12-22T01:46:47.141Z,41.95
2022-12-22T01:49:53.840Z,43.38
2022-12-22T01:52:42.124Z,42.65
2022-12-22T01:55:31.021Z,41.75
2022-12-22T01:58:17.321Z,40.13
2022-12-22T02:01:03.545Z,41.88
2022-12-22T02:03:49.299Z,44.47
2022-12-22T02:06:59.770Z,40.80
2022-12-22T02:09:55.723Z,40.70
2022-12-22T02:12:52.167Z,38.30
2022-12-22T02:15:44.461Z,40.40
2022-12-22T02:18:35.372Z,39.30
2022-12-22T02:21:28.672Z,43.42
2022-12-22T02:27:20.884Z,38.53
2022-12-22T02:30:10.014Z,37.22
2022-12-22T02:33:03.592Z,41.85
2022-12-22T02:36:22.182Z,41.22
2022-12-22T02:39:24.620Z,38.25
2022-12-22T02:42:37.985Z,40.30
2022-12-22T02:45:30.330Z,40.47
2022-12-22T02:48:21.298Z,40.17
2022-12-22T02:51:24.772Z,35.78
2022-12-22T02:54:11.593Z,35.85
2022-12-22T02:56:58.613Z,37.63
2022-12-22T02:59:44.624Z,38.30
2022-12-22T03:02:31.484Z,37.92
2022-12-22T03:05:18.094Z,40.13
2022-12-22T03:08:08.306Z,38.42
2022-12-22T03:10:55.260Z,38.33
2022-12-22T03:13:41.183Z,34.05
2022-12-22T03:16:27.320Z,38.50
2022-12-22T03:19:13.201Z,38.15
2022-12-22T03:21:59.592Z,37.47
2022-12-22T03:24:45.211Z,36.78
2022-12-22T03:27:12.749Z,36.15
2022-12-22T03:29:39.853Z,36.83
2022-12-22T03:32:07.305Z,35.70
2022-12-22T03:34:34.524Z,36.70
2022-12-22T03:37:01.783Z,35.92
2022-12-22T03:39:28.943Z,39.05
2022-12-22T03:42:14.991Z,38.90
2022-12-22T03:45:01.101Z,36.92
2022-12-22T03:47:28.721Z,36.50
2022-12-22T03:49:55.898Z,37.50
2022-12-22T03:52:23.316Z,39.00
2022-12-22T03:54:50.464Z,40.17
2022-12-22T03:57:17.857Z,37.78
2022-12-22T03:59:44.987Z,40.28
2022-12-22T04:02:12.580Z,38.30
2022-12-22T04:04:39.768Z,41.70
2022-12-22T04:07:07.175Z,41.33
2022-12-22T04:09:34.429Z,39.78
2022-12-22T04:12:20.570Z,41.00
2022-12-22T04:14:47.736Z,41.38
2022-12-22T04:17:15.064Z,38.55
2022-12-22T04:19:42.235Z,40.00
2022-12-22T04:22:09.696Z,41.72
2022-12-22T04:24:36.809Z,40.50
2022-12-22T04:27:04.127Z,41.25
2022-12-22T04:29:31.255Z,40.03
2022-12-22T04:31:58.721Z,42.40
2022-12-22T04:34:25.958Z,42.92
2022-12-22T04:36:53.348Z,40.65
2022-12-22T04:39:20.470Z,41.92
2022-12-22T04:41:48.067Z,40.58
2022-12-22T04:44:15.393Z,41.00
2022-12-22T04:46:43.114Z,42.70
2022-12-22T04:49:10.275Z,41.88
2022-12-22T04:51:37.633Z,41.83
2022-12-22T04:54:04.815Z,41.30
2022-12-22T04:56:32.193Z,41.42
2022-12-22T04:58:59.327Z,42.33
2022-12-22T05:01:26.918Z,42.30
2022-12-22T05:03:54.389Z,41.78
2022-12-22T05:06:21.710Z,40.97
2022-12-22T05:08:48.748Z,43.38
2022-12-22T05:11:16.115Z,41.22
2022-12-22T05:13:43.356Z,40.53
2022-12-22T05:16:18.648Z,42.08
2022-12-22T05:18:46.413Z,40.97
2022-12-22T05:21:19.180Z,41.47
2022-12-22T05:23:46.821Z,42.13
2022-12-22T05:26:15.057Z,41.67
2022-12-22T05:28:42.885Z,42.33
2022-12-22T05:31:14.577Z,40.80
2022-12-22T05:33:41.954Z,39.85
2022-12-22T05:36:09.368Z,40.53
2022-12-22T05:38:36.710Z,40.90
2022-12-22T05:41:05.045Z,40.28
2022-12-22T05:43:35.891Z,40.95
2022-12-22T05:46:09.403Z,41.63
2022-12-22T05:48:39.444Z,40.38
2022-12-22T05:51:09.792Z,39.50
2022-12-22T05:53:37.578Z,40.75
2022-12-22T05:56:05.917Z,41.85
2022-12-22T05:58:33.677Z,40.30
2022-12-22T06:01:01.585Z,37.05
2022-12-22T06:03:30.794Z,40.53
2022-12-22T06:05:59.573Z,39.92
2022-12-22T06:08:27.765Z,39.85
2022-12-22T06:10:56.595Z,41.45
2022-12-22T06:13:24.759Z,42.45
2022-12-22T06:15:52.395Z,42.65
2022-12-22T06:18:19.626Z,40.40
2022-12-22T06:20:47.541Z,41.58
2022-12-22T06:23:14.937Z,42.97
2022-12-22T06:25:42.432Z,40.92
2022-12-22T06:28:09.702Z,40.58
2022-12-22T06:30:37.009Z,38.75
2022-12-22T06:33:06.263Z,38.58
2022-12-22T06:35:38.112Z,40.20
2022-12-22T06:38:05.562Z,39.67
2022-12-22T06:40:33.499Z,39.50
2022-12-22T06:43:12.418Z,38.80
2022-12-22T06:45:42.438Z,38.72
2022-12-22T06:48:11.331Z,38.58
2022-12-22T06:50:38.907Z,40.45
2022-12-22T06:53:08.377Z,39.72
2022-12-22T06:55:37.139Z,39.47
2022-12-22T06:58:05.315Z,37.45
2022-12-22T07:00:33.596Z,38.70
2022-12-22T07:03:01.329Z,35.92
2022-12-22T07:05:32.017Z,37.47
2022-12-22T07:08:05.935Z,34.95
2022-12-22T07:10:54.192Z,35.70
2022-12-22T07:13:21.739Z,37.13
2022-12-22T07:15:55.437Z,35.80
2022-12-22T07:18:27.416Z,34.78
2022-12-22T07:20:55.325Z,34.72
2022-12-22T07:23:23.171Z,35.08
2022-12-22T07:25:50.878Z,35.00
2022-12-22T07:28:20.967Z,35.58
2022-12-22T07:30:50.309Z,34.83
2022-12-22T07:33:17.718Z,33.65
2022-12-22T07:35:45.449Z,34.10
2022-12-22T07:38:13.006Z,33.50
2022-12-22T07:40:42.476Z,33.83
2022-12-22T07:43:10.516Z,35.55
2022-12-22T07:45:38.465Z,33.08
2022-12-22T07:48:26.099Z,34.67
2022-12-22T07:50:54.638Z,37.05
2022-12-22T07:53:21.785Z,34.47
2022-12-22T07:55:49.176Z,34.63
2022-12-22T07:58:16.604Z,33.85
2022-12-22T08:00:44.217Z,34.72
2022-12-22T08:03:11.399Z,33.20
2022-12-22T08:05:39.156Z,34.15
2022-12-22T08:08:06.543Z,33.95
2022-12-22T08:10:34.164Z,35.38
2022-12-22T08:13:01.396Z,33.78
2022-12-22T08:15:28.993Z,32.63
2022-12-22T08:17:56.877Z,32.92
2022-12-22T08:20:24.577Z,32.38
2022-12-22T08:22:51.734Z,30.83
2022-12-22T08:25:19.338Z,32.95
2022-12-22T08:27:51.543Z,30.80
2022-12-22T08:30:19.205Z,31.90
2022-12-22T08:32:49.343Z,32.25
2022-12-22T08:35:17.161Z,32.70
2022-12-22T08:37:45.356Z,31.48
2022-12-22T08:40:16.544Z,32.38
2022-12-22T08:42:44.415Z,33.50
2022-12-22T08:45:12.493Z,32.13
2022-12-22T08:47:40.327Z,32.05
2022-12-22T08:50:08.559Z,31.75
2022-12-22T08:52:36.088Z,30.65
2022-12-22T08:55:04.176Z,32.70
2022-12-22T08:57:31.416Z,34.80
2022-12-22T08:59:59.647Z,31.08
2022-12-22T09:02:27.090Z,30.85
2022-12-22T09:04:54.950Z,31.58
2022-12-22T09:07:22.211Z,32.10
2022-12-22T09:09:49.822Z,31.35
2022-12-22T09:12:17.547Z,30.98
2022-12-22T09:14:45.123Z,30.42
2022-12-22T09:17:12.361Z,29.20
2022-12-22T09:19:40.053Z,30.10
2022-12-22T09:22:07.505Z,28.88
2022-12-22T09:24:35.313Z,30.48
2022-12-22T09:27:03.700Z,29.02
2022-12-22T09:29:31.406Z,28.50
2022-12-22T09:31:58.962Z,29.95
2022-12-22T09:34:27.689Z,28.35
2022-12-22T09:36:55.695Z,29.02
2022-12-22T09:39:28.852Z,27.80
2022-12-22T09:41:58.032Z,26.48
2022-12-22T09:44:33.072Z,26.92
2022-12-22T09:47:04.285Z,26.50
2022-12-22T09:49:32.194Z,25.55
2022-12-22T09:52:01.402Z,25.70
2022-12-22T09:54:30.321Z,24.58
2022-12-22T09:56:58.389Z,26.13
2022-12-22T09:59:28.610Z,27.08
2022-12-22T10:02:02.290Z,26.88
2022-12-22T10:05:07.703Z,25.55
2022-12-22T10:07:37.381Z,25.98
2022-12-22T10:10:28.382Z,25.45
2022-12-22T10:13:00.874Z,25.35
2022-12-22T10:15:36.650Z,26.20
2022-12-22T10:18:24.227Z,26.17
2022-12-22T10:21:11.933Z,25.95
2022-12-22T10:23:45.632Z,25.85
2022-12-22T10:26:28.061Z,25.70
2022-12-22T10:29:15.748Z,25.10
2022-12-22T10:32:03.199Z,26.10
2022-12-22T10:34:31.267Z,26.25
2022-12-22T10:37:04.172Z,25.83
2022-12-22T10:39:34.436Z,25.33
2022-12-22T10:42:10.146Z,24.88
2022-12-22T10:44:38.325Z,25.33
2022-12-22T10:47:18.239Z,24.30
2022-12-22T10:49:47.802Z,23.55
2022-12-22T10:52:16.614Z,23.42
2022-12-22T10:54:45.172Z,24.23
2022-12-22T10:57:16.729Z,22.95
2022-12-22T11:00:03.324Z,23.23
2022-12-22T11:02:40.380Z,24.67
2022-12-22T11:05:12.524Z,23.73
2022-12-22T11:07:43.047Z,24.55
2022-12-22T11:10:32.320Z,23.85
2022-12-22T11:13:22.948Z,23.38
2022-12-22T11:16:13.659Z,23.77
2022-12-22T11:19:12.581Z,23.92
2022-12-22T11:22:06.411Z,23.80
2022-12-22T11:24:42.603Z,23.55
2022-12-22T11:27:52.196Z,24.95
2022-12-22T11:30:24.292Z,26.90
2022-12-22T11:33:23.220Z,26.75
2022-12-22T11:35:56.662Z,26.20
2022-12-22T11:39:01.483Z,26.27
2022-12-22T11:41:34.279Z,28.60
2022-12-22T11:44:39.916Z,25.50
2022-12-22T11:47:19.373Z,25.88
2022-12-22T11:50:00.840Z,27.83
2022-12-22T11:53:19.207Z,27.77
2022-12-22T11:56:12.682Z,26.83
2022-12-22T11:58:58.806Z,27.55
2022-12-22T12:01:51.131Z,27.17
2022-12-22T12:04:37.305Z,27.27
2022-12-22T12:07:28.635Z,29.02
2022-12-22T12:10:20.433Z,27.50
2022-12-22T12:13:10.717Z,28.55
2022-12-22T12:15:56.816Z,27.23
2022-12-22T12:18:46.755Z,27.48
2022-12-22T12:22:02.649Z,25.83
2022-12-22T12:24:48.654Z,27.90
2022-12-22T12:27:40.687Z,27.05
2022-12-22T12:30:37.915Z,28.15
2022-12-22T12:33:24.823Z,29.38
2022-12-22T12:36:05.555Z,30.13
2022-12-22T12:39:11.546Z,29.40
2022-12-22T12:41:50.266Z,27.25
2022-12-22T12:44:20.232Z,29.42
2022-12-22T12:47:06.337Z,30.50
2022-12-22T12:49:34.222Z,28.60
2022-12-22T12:52:06.313Z,29.88
2022-12-22T12:54:37.167Z,28.35
2022-12-22T12:57:07.509Z,28.70
2022-12-22T12:59:40.996Z,29.70
2022-12-22T13:02:27.570Z,28.27
2022-12-22T13:05:08.266Z,28.50
2022-12-22T13:08:14.712Z,27.95
2022-12-22T13:10:45.924Z,30.40
2022-12-22T13:13:22.410Z,28.40
2022-12-22T13:16:12.716Z,28.45
2022-12-22T13:18:49.884Z,22.83
2022-12-22T13:24:26.275Z,22.65
2022-12-22T13:26:56.005Z,21.73
2022-12-22T13:29:27.475Z,21.20
2022-12-22T13:31:59.985Z,19.60
2022-12-22T13:35:20.265Z,19.27
2022-12-22T13:37:40.459Z,21.70
2022-12-22T13:40:31.457Z,20.92
2022-12-22T13:43:14.541Z,23.67
2022-12-22T13:45:54.810Z,23.48
2022-12-22T13:48:26.179Z,22.80
2022-12-22T13:50:55.645Z,24.55
2022-12-22T13:53:58.732Z,24.38
2022-12-22T13:56:18.378Z,24.67
2022-12-22T13:58:47.731Z,25.60
2022-12-22T14:01:18.262Z,24.42
2022-12-22T14:04:01.426Z,24.27
2022-12-22T14:09:11.124Z,24.90
2022-12-22T14:11:38.584Z,25.85
2022-12-22T14:14:09.107Z,25.50
2022-12-22T14:16:43.331Z,26.58
2022-12-22T14:19:15.679Z,24.58
2022-12-22T14:21:45.144Z,23.02
2022-12-22T14:24:22.437Z,24.65
2022-12-22T14:26:50.391Z,25.30
2022-12-22T14:29:20.486Z,27.83
2022-12-22T14:32:02.989Z,27.83
2022-12-22T14:34:32.917Z,28.00
2022-12-22T14:37:01.566Z,27.80
2022-12-22T14:39:32.125Z,29.17
2022-12-22T14:42:12.214Z,27.75
2022-12-22T14:44:44.645Z,28.90
2022-12-22T14:47:12.376Z,28.10
2022-12-22T14:50:12.253Z,27.52
2022-12-22T14:53:01.537Z,28.13
2022-12-22T14:55:32.451Z,25.42
2022-12-22T14:58:04.601Z,28.63
2022-12-22T15:00:41.672Z,28.77
2022-12-22T15:03:32.228Z,28.63
2022-12-22T15:06:28.496Z,30.33
2022-12-22T15:09:06.731Z,28.20
2022-12-22T15:11:36.651Z,29.23
2022-12-22T15:14:04.897Z,27.88
2022-12-22T15:16:32.567Z,29.73
2022-12-22T15:18:59.771Z,27.52
2022-12-22T15:21:27.424Z,29.00
2022-12-22T15:23:54.669Z,28.30
2022-12-22T15:26:22.059Z,28.92
2022-12-22T15:28:50.147Z,28.65
2022-12-22T15:31:18.435Z,27.98
2022-12-22T15:33:46.072Z,30.25
2022-12-22T15:36:14.714Z,29.05
2022-12-22T15:38:42.536Z,28.10
2022-12-22T15:41:10.137Z,28.13
2022-12-22T15:43:57.257Z,26.95
2022-12-22T15:46:25.360Z,27.10
2022-12-22T15:48:52.964Z,29.20
2022-12-22T15:51:26.560Z,30.17
2022-12-22T15:53:55.138Z,29.20
2022-12-22T15:56:24.805Z,29.02
2022-12-22T15:58:52.658Z,29.77
2022-12-22T16:01:20.371Z,28.10
2022-12-22T16:03:47.984Z,28.55
2022-12-22T16:06:17.807Z,29.77
2022-12-22T16:08:50.351Z,29.27
2022-12-22T16:11:18.960Z,29.52
2022-12-22T16:13:47.090Z,29.52
2022-12-22T16:16:14.835Z,27.42
2022-12-22T16:18:42.077Z,27.02
2022-12-22T16:21:20.463Z,28.80
2022-12-22T16:23:49.544Z,28.20
2022-12-22T16:26:20.356Z,29.05
2022-12-22T16:28:47.790Z,28.20
2022-12-22T16:31:21.476Z,28.77
2022-12-22T16:33:48.905Z,27.73
2022-12-22T16:36:16.315Z,29.13
2022-12-22T16:38:46.040Z,28.38
2022-12-22T16:41:22.979Z,29.50
2022-12-22T16:43:50.317Z,28.88
2022-12-22T16:46:20.162Z,27.50
2022-12-22T16:48:54.636Z,27.65
2022-12-22T16:51:49.415Z,28.25
2022-12-22T16:54:16.813Z,26.80
2022-12-22T16:56:47.001Z,28.90
2022-12-22T16:59:14.563Z,27.70
2022-12-22T17:01:55.090Z,30.80
2022-12-22T17:04:26.168Z,27.70
2022-12-22T17:06:55.640Z,29.65
2022-12-22T17:09:44.558Z,29.27
2022-12-22T17:12:18.407Z,29.35
2022-12-22T17:14:46.814Z,29.17
2022-12-22T17:17:31.811Z,30.10
2022-12-22T17:20:01.528Z,28.67
2022-12-22T17:22:31.289Z,29.98
2022-12-22T17:25:01.160Z,28.45
2022-12-22T17:27:33.211Z,30.20
2022-12-22T17:30:03.697Z,30.35
2022-12-22T17:32:31.309Z,32.25
2022-12-22T17:34:58.567Z,30.00
2022-12-22T17:37:26.648Z,31.35
2022-12-22T17:39:59.553Z,30.35
2022-12-22T17:42:27.278Z,31.73
2022-12-22T17:44:54.467Z,31.10
2022-12-22T17:47:29.023Z,31.95
2022-12-22T17:49:58.874Z,31.00
2022-12-22T17:52:28.113Z,31.05
2022-12-22T17:54:55.716Z,32.50
2022-12-22T17:57:25.958Z,31.60
2022-12-22T17:59:53.244Z,32.30
2022-12-22T18:02:23.145Z,31.70
2022-12-22T18:04:50.727Z,32.65
2022-12-22T18:07:20.948Z,32.10
2022-12-22T18:09:49.021Z,31.58
2022-12-22T18:12:21.661Z,32.00
2022-12-22T18:14:49.582Z,30.00
2022-12-22T18:17:33.198Z,32.03
2022-12-22T18:20:02.682Z,31.85
2022-12-22T18:22:30.229Z,34.03
2022-12-22T18:25:01.616Z,33.13
2022-12-22T18:27:30.668Z,33.90
2022-12-22T18:29:57.947Z,36.03
2022-12-22T18:32:28.068Z,33.42
2022-12-22T18:34:55.839Z,33.58
2022-12-22T18:37:23.446Z,32.17
2022-12-22T18:39:50.790Z,31.48
2022-12-22T18:42:23.462Z,32.15
2022-12-22T18:44:51.320Z,30.77
2022-12-22T18:47:19.219Z,31.05
2022-12-22T18:49:46.681Z,30.83
2022-12-22T18:52:18.002Z,31.35
2022-12-22T18:54:45.615Z,31.38
2022-12-22T18:57:22.079Z,30.05
2022-12-22T18:59:49.722Z,29.42
2022-12-22T19:02:22.226Z,31.08
2022-12-22T19:04:50.915Z,31.27
2022-12-22T19:07:21.295Z,30.42
2022-12-22T19:09:49.401Z,30.17
2022-12-22T19:12:23.415Z,31.92
2022-12-22T19:14:52.943Z,29.10
2022-12-22T19:17:23.838Z,30.00
2022-12-22T19:19:51.025Z,32.13
2022-12-22T19:22:18.389Z,32.03
2022-12-22T19:24:45.796Z,30.63
2022-12-22T19:27:26.919Z,28.55
2022-12-22T19:30:02.704Z,28.58
2022-12-22T19:32:36.791Z,27.83
2022-12-22T19:35:04.614Z,29.58
2022-12-22T19:37:32.507Z,28.77
2022-12-22T19:40:00.222Z,27.45
2022-12-22T19:42:27.844Z,26.35
2022-12-22T19:44:55.214Z,27.92
2022-12-22T19:47:29.639Z,27.88
2022-12-22T19:49:57.080Z,26.52
2022-12-22T19:52:24.556Z,27.55
2022-12-22T19:54:51.813Z,27.08
2022-12-22T19:57:22.009Z,26.88
2022-12-22T19:59:50.423Z,26.90
2022-12-22T20:02:21.541Z,26.10
2022-12-22T20:04:49.771Z,26.92
2022-12-22T20:07:19.538Z,25.75
2022-12-22T20:09:47.409Z,26.60
2022-12-22T20:12:35.392Z,26.13
2022-12-22T20:15:14.359Z,26.90
2022-12-22T20:17:42.342Z,25.25
2022-12-22T20:20:17.319Z,24.33
2022-12-22T20:22:47.225Z,25.05
2022-12-22T20:25:18.112Z,24.13
2022-12-22T20:27:45.861Z,23.55
2022-12-22T20:30:24.276Z,24.20
2022-12-22T20:32:51.983Z,25.17
2022-12-22T20:35:19.193Z,24.63
2022-12-22T20:37:47.039Z,24.77
2022-12-22T20:40:34.792Z,26.25
2022-12-22T20:43:02.523Z,26.60
2022-12-22T20:45:31.039Z,27.20
2022-12-22T20:47:59.922Z,27.65
2022-12-22T20:50:29.990Z,24.88
2022-12-22T20:52:57.908Z,24.75
2022-12-22T20:55:27.567Z,25.27
2022-12-22T20:57:55.479Z,24.35
2022-12-22T21:00:27.714Z,24.15
2022-12-22T21:02:55.765Z,25.02
2022-12-22T21:05:23.361Z,23.88
2022-12-22T21:07:50.898Z,25.52
2022-12-22T21:10:23.141Z,23.13
2022-12-22T21:12:50.932Z,25.60
2022-12-22T21:15:20.575Z,24.38
2022-12-22T21:17:52.811Z,24.10
2022-12-22T21:20:26.227Z,22.98
2022-12-22T21:22:54.311Z,24.20
2022-12-22T21:25:23.171Z,23.38
2022-12-22T21:27:54.743Z,23.30
2022-12-22T21:30:30.926Z,23.25
2022-12-22T21:32:59.795Z,22.05
2022-12-22T21:35:36.166Z,22.98
2022-12-22T21:38:04.889Z,24.13
2022-12-22T21:40:33.114Z,23.33
2022-12-22T21:43:00.982Z,22.05
2022-12-22T21:45:30.639Z,21.90
2022-12-22T21:48:02.376Z,21.60
2022-12-22T21:50:32.269Z,23.30
2022-12-22T21:53:00.140Z,22.33
2022-12-22T21:55:30.077Z,23.05
2022-12-22T21:57:58.825Z,22.98
2022-12-22T22:00:28.523Z,24.15
2022-12-22T22:02:57.560Z,25.50
2022-12-22T22:05:39.745Z,25.08
2022-12-22T22:08:09.051Z,24.87
2022-12-22T22:10:38.843Z,24.35
2022-12-22T22:13:07.210Z,24.50
2022-12-22T22:15:35.613Z,25.88
2022-12-22T22:18:07.195Z,24.52
2022-12-22T22:20:35.172Z,26.02
2022-12-22T22:23:02.825Z,25.30
2022-12-22T22:25:30.418Z,24.92
2022-12-22T22:27:59.960Z,25.55
2022-12-22T22:30:27.707Z,24.83
2022-12-22T22:32:56.418Z,26.63
2022-12-22T22:35:25.144Z,26.73
2022-12-22T22:37:53.013Z,26.27
2022-12-22T22:40:22.863Z,26.90
2022-12-22T22:42:50.594Z,26.08
2022-12-22T22:45:23.947Z,26.48
2022-12-22T22:47:53.067Z,28.00
2022-12-22T22:50:21.641Z,27.40
2022-12-22T22:52:49.491Z,27.85
2022-12-22T22:55:16.751Z,25.50
2022-12-22T22:57:44.520Z,26.40
2022-12-22T23:00:14.442Z,23.75
2022-12-22T23:02:42.876Z,25.95
2022-12-22T23:05:15.408Z,25.65
2022-12-22T23:07:46.605Z,25.35
2022-12-22T23:10:14.415Z,25.67
2022-12-22T23:12:42.541Z,27.10
2022-12-22T23:15:10.066Z,26.55
2022-12-22T23:17:37.821Z,27.48
2022-12-22T23:20:05.727Z,27.33
2022-12-22T23:22:33.697Z,24.70
2022-12-22T23:25:01.115Z,25.60
2022-12-22T23:27:28.681Z,26.75
2022-12-22T23:29:56.764Z,25.85
2022-12-22T23:32:25.152Z,25.92
2022-12-22T23:34:52.647Z,25.20
2022-12-22T23:37:20.373Z,27.42
2022-12-22T23:39:47.674Z,26.80
2022-12-22T23:42:15.361Z,26.30
2022-12-22T23:44:42.470Z,25.83
2022-12-22T23:47:09.999Z,26.50
2022-12-22T23:49:37.308Z,26.85
2022-12-22T23:52:05.015Z,27.05
2022-12-22T23:54:32.302Z,26.75
2022-12-22T23:57:00.000Z,25.20
2022-12-22T23:59:27.466Z,26.02
